Airfield :
LOGIN :

Register | Disclaimer

   EN    FR    IT 

 










Legend :    VFR   Marginal VFR   IFR   Intensive IFR   Very Intensive IFR
Visi :
Ceiling :
>= 8 km
>= 3000ft
5 to 8 km
1000 to 3000 ft
1500m to 5 km
500 to 1000 ft
800 to 1500m
200 to 500 ft
< 800m
< 200 ft
Symbols :   Thunderstorms  Fog  Heavy snow  Heavy precipitations  Wind > 20 kt
SIGMETs :     Misc.  Thunderstorms  Icing  Turbulence  Mountain Waves  Volcanic Ashes







- Airport Elevation : 245 ft
- IATA code : BIQ
- Download approach charts


LFBZ - Biarritz

CURRENT METAR :
  • 181530Z AUTO 28012KT 9999 FEW018 12/08 Q1022 NOSIG

EXPIRED METARs :
  • 181500Z AUTO 27011KT 220V290 CAVOK 12/08 Q1022 NOSIG
  • 181430Z AUTO 26009KT 210V280 CAVOK 13/08 Q1022 NOSIG
  • 181400Z AUTO 26008KT 200V290 CAVOK 13/07 Q1022 NOSIG
  • 181330Z AUTO 24007KT 200V290 9999 FEW024 13/07 Q1023 NOSIG
  • 181300Z AUTO 27010KT 220V300 CAVOK 13/07 Q1023 NOSIG

TAF TAF LFBZ
Valid from the 18 at 12:00 until the 19 at 12:00 UTC


181100Z 1812/1912 27010KT 9999 BKN030
BECMG 1821/1822 -RA BKN015
TEMPO 1903/1906 BKN005
TEMPO 1908/1912 32015G30KT SHRA SCT010 BKN015TCU
No reported NOTAMs for that airfield.
1 SIGMET reported for the Bordeaux FIR (LFBB) :
 
Severe turbulence
LFBB SIGMET 4 VALID 181300/181700 LFPW
LFBB BORDEAUX FIR/UIR SEV TURB FCST NE OF LINE N4500 E00245 - N4715 E00130 SFC/FL080 STNR WKN=



MET'MAP, your aeronautical weather chart ! - Copyright ORBIFLY December 2007 - Disclaimer

ORBIFLY MET'MAP TEAM :

Programming & Development : Alexandra Zaïnal
Concept & Development : Baudouin d'Aumeries
Co-Development & Prog : Marc-Olivier Méhu
Technical & hardware support : Manuel Goepfert

Contact : metmap@orbifly.com




SOURCES & CREDITS :

   NOAA